Alexandria, Kentucky
Current Conditions -  °F | °C
As of 5:53 PM on Wednesday 22 Oct 2014 (Local Time) from KLUK Reporting Station
Overcast Overcast  
Wind Chill: 11°   Ceiling: 3200
Heat Index: 11°   Visibility: 10mi
Dew Point:   Wind: 7mph
Humidity: 66%   Direction: 30°NNE
Pressure: 30.28"   Gusts: NA
Location:  38.96°N, 84.4°W
Report Text: KLUK 222153Z 03006KT 10SM OVC032 11/05 A3028 RMK AO2 SLP254 T01110050
Loading
Personal Weather Stations






























Interactive Weather Map
Tropical Storm Tracking
New forecast layout! Learn more

10-Day Weather Forecast

Advertisements
Track Severe Weather on mobile